METAR Data
IDs: Format: Raw Decoded Include TAF

Data at: 0948 UTC 18 Jan 2022

GCLP 180930Z 15012KT 9999 SCT015 BKN022 16/13 Q1022 NOSIG